createdAt,value
2023-08-30T00:01:09.924Z,3.57
2023-08-30T00:03:38.096Z,4.30
2023-08-30T00:06:06.871Z,4.30
2023-08-30T00:08:35.808Z,4.40
2023-08-30T00:11:05.461Z,3.83
2023-08-30T00:13:35.356Z,4.10
2023-08-30T00:16:04.806Z,3.93
2023-08-30T00:18:33.298Z,4.67
2023-08-30T00:21:02.291Z,4.10
2023-08-30T00:23:30.383Z,4.40
2023-08-30T00:25:58.935Z,3.80
2023-08-30T00:28:27.155Z,4.10
2023-08-30T00:30:57.669Z,4.30
2023-08-30T00:33:25.819Z,4.23
2023-08-30T00:36:00.969Z,4.13
2023-08-30T00:38:30.673Z,3.97
2023-08-30T00:40:58.851Z,4.60
2023-08-30T00:43:27.113Z,4.00
2023-08-30T00:45:58.374Z,3.90
2023-08-30T00:48:26.762Z,4.17
2023-08-30T00:50:54.994Z,3.90
2023-08-30T00:53:23.292Z,4.13
2023-08-30T00:55:51.465Z,3.87
2023-08-30T00:58:20.059Z,3.73
2023-08-30T01:00:48.494Z,4.53
2023-08-30T01:03:18.350Z,4.17
2023-08-30T01:05:46.501Z,4.07
2023-08-30T01:08:14.628Z,4.53
2023-08-30T01:10:54.832Z,4.03
2023-08-30T01:13:23.311Z,3.90
2023-08-30T01:15:56.197Z,4.37
2023-08-30T01:18:31.081Z,4.03
2023-08-30T01:21:04.550Z,4.27
2023-08-30T01:23:49.701Z,4.03
2023-08-30T01:26:28.577Z,4.47
2023-08-30T01:28:59.386Z,3.97
2023-08-30T01:31:30.629Z,4.40
2023-08-30T01:33:59.583Z,4.00
2023-08-30T01:36:28.138Z,4.23
2023-08-30T01:38:56.507Z,4.13
2023-08-30T01:41:27.858Z,4.00
2023-08-30T01:44:00.168Z,4.63
2023-08-30T01:46:30.557Z,4.70
2023-08-30T01:48:59.167Z,4.57
2023-08-30T01:51:30.607Z,4.50
2023-08-30T01:54:00.078Z,4.57
2023-08-30T01:56:29.641Z,4.37
2023-08-30T01:59:00.376Z,4.07
2023-08-30T02:01:29.414Z,4.37
2023-08-30T02:03:57.581Z,3.97
2023-08-30T02:06:29.572Z,4.40
2023-08-30T02:09:04.522Z,4.23
2023-08-30T02:11:37.313Z,4.70
2023-08-30T02:14:12.130Z,3.67
2023-08-30T02:16:41.599Z,4.17
2023-08-30T02:19:10.357Z,4.27
2023-08-30T02:21:39.411Z,4.00
2023-08-30T02:24:09.654Z,4.50
2023-08-30T02:26:37.720Z,4.80
2023-08-30T02:29:07.601Z,4.27
2023-08-30T02:31:36.239Z,5.70
2023-08-30T02:34:04.499Z,4.73
2023-08-30T02:36:32.666Z,4.53
2023-08-30T02:39:00.781Z,5.00
2023-08-30T02:41:29.205Z,4.57
2023-08-30T02:43:57.336Z,4.50
2023-08-30T02:46:26.839Z,4.47
2023-08-30T02:48:56.343Z,4.23
2023-08-30T02:51:25.474Z,4.50
2023-08-30T02:53:53.665Z,5.10
2023-08-30T02:56:21.964Z,4.70
2023-08-30T02:58:50.068Z,4.93
2023-08-30T03:01:18.825Z,4.20
2023-08-30T03:03:49.438Z,5.57
2023-08-30T03:06:20.199Z,4.87
2023-08-30T03:08:48.539Z,4.30
2023-08-30T03:11:16.792Z,4.30
2023-08-30T03:13:56.532Z,4.93
2023-08-30T03:16:26.081Z,4.90
2023-08-30T03:18:56.445Z,4.03
2023-08-30T03:21:24.675Z,4.33
2023-08-30T03:23:52.763Z,4.33
2023-08-30T03:26:20.934Z,4.30
2023-08-30T03:28:49.020Z,4.60
2023-08-30T03:31:18.380Z,4.83
2023-08-30T03:33:48.552Z,4.63
2023-08-30T03:36:20.507Z,4.70
2023-08-30T03:38:48.803Z,4.83
2023-08-30T03:41:17.076Z,4.70
2023-08-30T03:43:46.430Z,4.50
2023-08-30T03:46:14.631Z,5.00
2023-08-30T03:48:42.768Z,4.33
2023-08-30T03:51:15.966Z,4.97
2023-08-30T03:53:45.467Z,5.03
2023-08-30T03:56:15.017Z,4.60
2023-08-30T03:58:43.151Z,5.37
2023-08-30T04:01:13.537Z,4.80
2023-08-30T04:03:42.118Z,5.00
2023-08-30T04:06:10.300Z,5.40
2023-08-30T04:08:38.581Z,5.50
2023-08-30T04:11:08.107Z,4.97
2023-08-30T04:13:36.582Z,4.87
2023-08-30T04:16:05.757Z,6.37
2023-08-30T04:18:33.853Z,5.27
2023-08-30T04:21:03.368Z,5.73
2023-08-30T04:23:31.773Z,5.43
2023-08-30T04:25:59.985Z,5.20
2023-08-30T04:28:29.981Z,5.40
2023-08-30T04:30:58.891Z,5.07
2023-08-30T04:33:28.126Z,5.60
2023-08-30T04:35:57.174Z,5.57
2023-08-30T04:38:25.272Z,5.23
2023-08-30T04:41:00.724Z,5.03
2023-08-30T04:43:33.892Z,4.73
2023-08-30T04:46:03.749Z,4.13
2023-08-30T04:48:32.864Z,4.83
2023-08-30T04:51:04.027Z,5.03
2023-08-30T04:53:32.629Z,5.00
2023-08-30T04:56:01.514Z,4.87
2023-08-30T04:58:31.007Z,4.30
2023-08-30T05:01:02.557Z,4.47
2023-08-30T05:03:33.095Z,4.60
2023-08-30T05:06:02.418Z,4.63
2023-08-30T05:08:30.618Z,4.07
2023-08-30T05:10:58.734Z,4.53
2023-08-30T05:13:27.435Z,4.60
2023-08-30T05:15:55.604Z,4.50
2023-08-30T05:18:25.116Z,4.57
2023-08-30T05:20:53.418Z,4.27
2023-08-30T05:23:21.544Z,4.53
2023-08-30T05:25:49.666Z,4.40
2023-08-30T05:28:18.863Z,4.67
2023-08-30T05:30:47.151Z,4.80
2023-08-30T05:33:39.196Z,4.83
2023-08-30T05:36:25.420Z,5.07
2023-08-30T05:39:05.931Z,4.63
2023-08-30T05:41:39.158Z,4.90
2023-08-30T05:44:08.682Z,5.03
2023-08-30T05:46:36.982Z,5.00
2023-08-30T05:49:06.588Z,4.90
2023-08-30T05:51:34.798Z,5.07
2023-08-30T05:54:03.497Z,4.90
2023-08-30T05:56:32.152Z,5.37
2023-08-30T05:59:02.854Z,5.20
2023-08-30T06:01:31.253Z,5.67
2023-08-30T06:03:59.498Z,5.23
2023-08-30T06:06:29.061Z,5.13
2023-08-30T06:08:57.279Z,5.00
2023-08-30T06:11:25.444Z,5.30
2023-08-30T06:13:53.551Z,5.20
2023-08-30T06:16:21.706Z,4.93
2023-08-30T06:18:49.817Z,5.47
2023-08-30T06:21:18.032Z,4.87
2023-08-30T06:23:47.458Z,4.90
2023-08-30T06:26:15.586Z,4.67
2023-08-30T06:28:51.480Z,5.17
2023-08-30T06:31:28.866Z,5.30
2023-08-30T06:34:02.080Z,5.47
2023-08-30T06:36:30.312Z,5.33
2023-08-30T06:38:59.828Z,5.23
2023-08-30T06:41:27.948Z,5.70
2023-08-30T06:43:56.331Z,5.27
2023-08-30T06:46:24.529Z,5.57
2023-08-30T06:48:52.748Z,4.80
2023-08-30T06:51:20.865Z,5.40
2023-08-30T06:53:49.042Z,4.73
2023-08-30T06:56:18.642Z,5.17
2023-08-30T06:58:46.781Z,4.37
2023-08-30T07:01:14.910Z,4.47
2023-08-30T07:03:43.123Z,4.93
2023-08-30T07:06:11.318Z,4.00
2023-08-30T07:08:39.635Z,5.13
2023-08-30T07:11:17.125Z,4.47
2023-08-30T07:13:53.524Z,4.60
2023-08-30T07:16:21.877Z,4.03
2023-08-30T07:18:51.256Z,4.17
2023-08-30T07:21:19.399Z,4.73
2023-08-30T07:23:47.550Z,3.77
2023-08-30T07:26:15.666Z,4.20
2023-08-30T07:28:44.600Z,4.23
2023-08-30T07:31:16.502Z,3.97
2023-08-30T07:33:44.696Z,4.20
2023-08-30T07:36:13.475Z,4.50
2023-08-30T07:38:41.645Z,4.43
2023-08-30T07:41:12.355Z,4.40
2023-08-30T07:43:41.093Z,3.70
2023-08-30T07:46:09.598Z,3.90
2023-08-30T07:48:39.101Z,3.73
2023-08-30T07:51:07.369Z,3.83
2023-08-30T07:53:35.623Z,4.00
2023-08-30T07:56:03.827Z,4.63
2023-08-30T07:58:31.924Z,4.23
2023-08-30T08:01:00.744Z,4.30
2023-08-30T08:03:30.160Z,3.77
2023-08-30T08:06:00.987Z,4.30
2023-08-30T08:08:29.292Z,4.17
2023-08-30T08:10:57.503Z,4.30
2023-08-30T08:13:25.781Z,4.47
2023-08-30T08:15:54.078Z,4.00
2023-08-30T08:18:22.300Z,3.97
2023-08-30T08:20:50.500Z,4.00
2023-08-30T08:23:19.939Z,3.63
2023-08-30T08:25:48.085Z,4.50
2023-08-30T08:28:17.015Z,4.70
2023-08-30T08:30:46.294Z,4.50
2023-08-30T08:33:14.451Z,4.57
2023-08-30T08:35:42.563Z,5.27
2023-08-30T08:38:10.951Z,4.03
2023-08-30T08:40:43.383Z,4.47
2023-08-30T08:43:13.475Z,4.37
2023-08-30T08:45:41.810Z,3.93
2023-08-30T08:48:10.264Z,4.93
2023-08-30T08:50:39.363Z,4.80
2023-08-30T08:53:08.434Z,3.97
2023-08-30T08:55:39.458Z,3.93
2023-08-30T08:58:08.973Z,4.33
2023-08-30T09:00:37.659Z,4.50
2023-08-30T09:03:09.748Z,4.17
2023-08-30T09:05:40.622Z,3.60
2023-08-30T09:08:09.163Z,3.13
2023-08-30T09:10:38.147Z,3.53
2023-08-30T09:13:06.271Z,3.30
2023-08-30T09:15:38.105Z,3.43
2023-08-30T09:18:06.874Z,3.83
2023-08-30T09:20:35.104Z,3.57
2023-08-30T09:23:03.679Z,3.50
2023-08-30T09:25:31.966Z,3.20
2023-08-30T09:28:02.276Z,3.40
2023-08-30T09:30:33.061Z,3.10
2023-08-30T09:33:05.541Z,3.00
2023-08-30T09:35:33.860Z,2.93
2023-08-30T09:38:02.392Z,2.77
2023-08-30T09:40:31.383Z,2.90
2023-08-30T09:43:12.937Z,2.70
2023-08-30T09:45:42.722Z,3.10
2023-08-30T09:48:12.825Z,2.50
2023-08-30T09:50:44.022Z,3.00
2023-08-30T09:53:13.829Z,2.70
2023-08-30T09:55:43.444Z,2.57
2023-08-30T09:58:14.607Z,2.87
2023-08-30T10:00:45.554Z,2.77
2023-08-30T10:03:29.255Z,2.60
2023-08-30T10:05:59.954Z,2.87
2023-08-30T10:08:32.471Z,3.00
2023-08-30T10:11:02.345Z,2.53
2023-08-30T10:13:31.769Z,2.83
2023-08-30T10:16:07.200Z,3.10
2023-08-30T10:18:43.568Z,3.13
2023-08-30T10:21:16.382Z,2.70
2023-08-30T10:23:47.537Z,2.50
2023-08-30T10:26:16.977Z,2.93
2023-08-30T10:28:45.981Z,3.00
2023-08-30T10:33:51.695Z,2.30
2023-08-30T10:36:24.857Z,2.40
2023-08-30T10:38:54.232Z,2.53
2023-08-30T10:41:25.043Z,2.33
2023-08-30T10:43:56.237Z,2.50
2023-08-30T10:46:35.422Z,2.50
2023-08-30T10:49:24.623Z,2.57
2023-08-30T10:52:00.313Z,2.50
2023-08-30T10:54:39.690Z,2.23
2023-08-30T10:57:14.500Z,3.57
2023-08-30T10:59:42.715Z,2.60
2023-08-30T11:02:11.124Z,2.53
2023-08-30T11:04:43.718Z,3.00
2023-08-30T11:07:13.886Z,3.23
2023-08-30T11:09:42.442Z,4.23
2023-08-30T11:12:10.590Z,4.23
2023-08-30T11:14:43.184Z,3.67
2023-08-30T11:17:12.459Z,4.17
2023-08-30T11:19:41.937Z,3.63
2023-08-30T11:22:10.096Z,3.63
2023-08-30T11:24:38.475Z,3.80
2023-08-30T11:27:07.037Z,4.10
2023-08-30T11:29:35.182Z,4.17
2023-08-30T11:32:03.745Z,3.83
2023-08-30T11:34:31.927Z,3.70
2023-08-30T11:37:01.558Z,3.93
2023-08-30T11:39:31.150Z,4.10
2023-08-30T11:42:09.292Z,4.33
2023-08-30T11:44:46.680Z,4.17
2023-08-30T11:47:21.468Z,4.03
2023-08-30T11:49:51.105Z,4.00
2023-08-30T11:52:21.417Z,4.57
2023-08-30T11:54:50.896Z,3.93
2023-08-30T11:57:19.306Z,4.03
2023-08-30T11:59:48.885Z,4.37
2023-08-30T12:02:18.483Z,4.37
2023-08-30T12:04:48.883Z,3.47
2023-08-30T12:07:25.788Z,3.03
2023-08-30T12:09:54.462Z,3.80
2023-08-30T12:12:25.937Z,3.90
2023-08-30T12:14:58.197Z,3.87
2023-08-30T12:17:26.630Z,3.90
2023-08-30T12:19:58.727Z,3.83
2023-08-30T12:22:39.477Z,4.17
2023-08-30T12:25:18.950Z,3.63
2023-08-30T12:27:47.629Z,3.60
2023-08-30T12:30:17.351Z,3.60
2023-08-30T12:32:46.395Z,3.50
2023-08-30T12:35:16.409Z,3.00
2023-08-30T12:37:46.053Z,3.20
2023-08-30T12:40:15.000Z,3.53
2023-08-30T12:42:43.330Z,4.13
2023-08-30T12:45:11.948Z,3.40
2023-08-30T12:47:40.308Z,2.60
2023-08-30T12:50:10.691Z,2.80
2023-08-30T12:52:39.520Z,3.50
2023-08-30T12:55:11.113Z,3.93
2023-08-30T12:57:39.526Z,3.23
2023-08-30T13:00:09.556Z,3.50
2023-08-30T13:02:38.277Z,3.80
2023-08-30T13:05:07.224Z,3.27
2023-08-30T13:07:36.182Z,2.80
2023-08-30T13:10:04.827Z,2.80
2023-08-30T13:12:34.456Z,2.80
2023-08-30T13:15:03.527Z,3.20
2023-08-30T13:17:31.681Z,2.80
2023-08-30T13:19:59.896Z,3.00
2023-08-30T13:22:28.270Z,2.60
2023-08-30T13:24:56.869Z,2.93
2023-08-30T13:27:25.244Z,2.40
2023-08-30T13:29:54.921Z,2.40
2023-08-30T13:32:23.106Z,2.77
2023-08-30T13:34:52.928Z,2.93
2023-08-30T13:37:21.318Z,2.93
2023-08-30T13:39:49.968Z,3.13
2023-08-30T13:42:18.254Z,2.57
2023-08-30T13:44:46.742Z,2.63
2023-08-30T13:47:17.588Z,2.30
2023-08-30T13:49:45.761Z,2.30
2023-08-30T13:52:14.244Z,2.50
2023-08-30T13:54:42.476Z,2.47
2023-08-30T13:57:10.709Z,2.07
2023-08-30T13:59:38.773Z,2.30
2023-08-30T14:02:06.963Z,2.50
2023-08-30T14:04:38.382Z,2.57
2023-08-30T14:07:06.790Z,2.07
2023-08-30T14:09:34.984Z,3.17
2023-08-30T14:12:04.896Z,2.60
2023-08-30T14:14:33.532Z,2.00
2023-08-30T14:17:02.210Z,2.33
2023-08-30T14:19:30.304Z,2.70
2023-08-30T14:22:00.667Z,2.60
2023-08-30T14:24:32.002Z,2.40
2023-08-30T14:27:03.332Z,2.50
2023-08-30T14:29:31.471Z,2.50
2023-08-30T14:31:59.910Z,2.60
2023-08-30T14:34:29.779Z,3.20
2023-08-30T14:36:59.172Z,2.90
2023-08-30T14:39:27.273Z,2.83
2023-08-30T14:41:55.420Z,2.90
2023-08-30T14:44:23.528Z,2.90
2023-08-30T14:46:51.736Z,2.70
2023-08-30T14:49:19.925Z,3.00
2023-08-30T14:51:48.390Z,3.20
2023-08-30T14:54:17.973Z,2.97
2023-08-30T14:56:46.163Z,3.10
2023-08-30T14:59:14.415Z,2.50
2023-08-30T15:01:42.558Z,2.83
2023-08-30T15:04:10.694Z,2.73
2023-08-30T15:06:41.190Z,3.20
2023-08-30T15:09:11.710Z,3.07
2023-08-30T15:11:41.189Z,2.80
2023-08-30T15:14:09.900Z,2.70
2023-08-30T15:16:38.050Z,3.07
2023-08-30T15:19:06.222Z,2.67
2023-08-30T15:21:34.303Z,3.23
2023-08-30T15:24:03.336Z,2.83
2023-08-30T15:26:31.485Z,2.97
2023-08-30T15:29:01.057Z,2.53
2023-08-30T15:31:29.416Z,2.60
2023-08-30T15:33:57.984Z,2.97
2023-08-30T15:36:26.439Z,2.63
2023-08-30T15:38:54.589Z,2.50
2023-08-30T15:41:23.479Z,2.27
2023-08-30T15:43:51.651Z,2.40
2023-08-30T15:46:22.322Z,2.67
2023-08-30T15:48:50.454Z,2.63
2023-08-30T15:51:24.353Z,2.80
2023-08-30T15:53:53.908Z,2.83
2023-08-30T15:56:22.823Z,2.77
2023-08-30T15:58:51.107Z,3.30
2023-08-30T16:01:21.962Z,2.50
2023-08-30T16:03:50.409Z,2.10
2023-08-30T16:06:18.655Z,1.90
2023-08-30T16:08:46.809Z,2.30
2023-08-30T16:11:14.916Z,2.50
2023-08-30T16:13:43.023Z,2.30
2023-08-30T16:16:11.181Z,2.17
2023-08-30T16:18:40.632Z,2.30
2023-08-30T16:21:08.809Z,2.13
2023-08-30T16:23:37.112Z,2.23
2023-08-30T16:26:05.213Z,2.10
2023-08-30T16:28:35.081Z,2.13
2023-08-30T16:31:07.749Z,2.43
2023-08-30T16:33:36.288Z,2.30
2023-08-30T16:36:06.445Z,1.93
2023-08-30T16:38:35.132Z,2.33
2023-08-30T16:41:05.123Z,2.07
2023-08-30T16:43:33.485Z,1.80
2023-08-30T16:46:01.664Z,2.70
2023-08-30T16:48:30.554Z,2.23
2023-08-30T16:50:59.027Z,2.00
2023-08-30T16:53:29.156Z,2.00
2023-08-30T16:55:57.392Z,1.90
2023-08-30T16:58:25.442Z,2.37
2023-08-30T17:00:53.582Z,2.33
2023-08-30T17:03:21.968Z,2.30
2023-08-30T17:05:50.242Z,2.20
2023-08-30T17:08:18.339Z,2.13
2023-08-30T17:10:47.811Z,2.40
2023-08-30T17:13:16.068Z,2.20
2023-08-30T17:15:46.167Z,2.10
2023-08-30T17:18:14.547Z,2.33
2023-08-30T17:20:42.647Z,2.30
2023-08-30T17:23:10.712Z,2.10
2023-08-30T17:25:38.805Z,2.43
2023-08-30T17:28:08.404Z,2.13
2023-08-30T17:30:36.717Z,2.77
2023-08-30T17:33:05.523Z,2.50
2023-08-30T17:35:35.210Z,2.53
2023-08-30T17:38:03.528Z,2.13
2023-08-30T17:40:32.720Z,2.10
2023-08-30T17:43:00.791Z,2.37
2023-08-30T17:45:32.103Z,2.33
2023-08-30T17:48:00.438Z,2.30
2023-08-30T17:50:29.520Z,2.50
2023-08-30T17:52:58.035Z,2.60
2023-08-30T17:55:27.080Z,2.97
2023-08-30T17:57:56.248Z,2.60
2023-08-30T18:00:24.586Z,2.27
2023-08-30T18:02:54.244Z,2.80
2023-08-30T18:05:22.984Z,2.57
2023-08-30T18:07:56.862Z,2.27
2023-08-30T18:10:25.982Z,2.23
2023-08-30T18:12:54.248Z,2.40
2023-08-30T18:15:22.636Z,2.23
2023-08-30T18:17:51.523Z,2.40
2023-08-30T18:20:21.089Z,2.73
2023-08-30T18:22:49.357Z,2.90
2023-08-30T18:25:19.070Z,2.83
2023-08-30T18:27:47.160Z,2.90
2023-08-30T18:30:15.582Z,3.07
2023-08-30T18:32:44.401Z,2.50
2023-08-30T18:35:12.546Z,2.77
2023-08-30T18:37:42.711Z,2.50
2023-08-30T18:40:11.895Z,2.60
2023-08-30T18:42:40.338Z,2.43
2023-08-30T18:45:10.553Z,2.30
2023-08-30T18:47:38.630Z,2.47
2023-08-30T18:50:09.665Z,2.60
2023-08-30T18:52:37.858Z,3.07
2023-08-30T18:55:08.900Z,3.33
2023-08-30T18:57:37.678Z,7.30
2023-08-30T19:00:11.302Z,4.13
2023-08-30T19:02:39.712Z,3.70
2023-08-30T19:05:10.065Z,2.80
2023-08-30T19:07:38.143Z,2.90
2023-08-30T19:10:09.740Z,3.27
2023-08-30T19:12:37.834Z,2.40
2023-08-30T19:15:09.000Z,2.17
2023-08-30T19:17:37.140Z,3.27
2023-08-30T19:20:06.557Z,2.53
2023-08-30T19:22:34.724Z,2.20
2023-08-30T19:25:02.912Z,2.10
2023-08-30T19:27:32.326Z,2.17
2023-08-30T19:30:00.483Z,1.83
2023-08-30T19:32:29.152Z,1.97
2023-08-30T19:34:57.271Z,2.23
2023-08-30T19:37:28.539Z,1.90
2023-08-30T19:39:57.159Z,1.90
2023-08-30T19:42:25.406Z,1.63
2023-08-30T19:44:58.890Z,1.90
2023-08-30T19:47:27.609Z,1.57
2023-08-30T19:49:56.074Z,1.97
2023-08-30T19:52:24.441Z,2.03
2023-08-30T19:54:53.649Z,2.03
2023-08-30T19:57:22.293Z,1.70
2023-08-30T19:59:50.348Z,1.87
2023-08-30T20:02:19.884Z,1.80
2023-08-30T20:04:48.193Z,1.90
2023-08-30T20:07:16.315Z,1.93
2023-08-30T20:09:44.491Z,1.80
2023-08-30T20:12:12.622Z,1.90
2023-08-30T20:14:40.718Z,1.83
2023-08-30T20:17:08.839Z,2.30
2023-08-30T20:19:38.548Z,2.03
2023-08-30T20:22:06.823Z,2.33
2023-08-30T20:24:35.124Z,2.10
2023-08-30T20:27:03.322Z,2.17
2023-08-30T20:29:31.497Z,2.10
2023-08-30T20:31:59.587Z,2.17
2023-08-30T20:34:27.730Z,1.97
2023-08-30T20:36:57.163Z,2.20
2023-08-30T20:39:25.576Z,2.20
2023-08-30T20:41:55.577Z,2.20
2023-08-30T20:44:23.908Z,2.83
2023-08-30T20:46:51.986Z,2.00
2023-08-30T20:49:20.246Z,2.00
2023-08-30T20:51:48.437Z,2.20
2023-08-30T20:54:18.011Z,2.43
2023-08-30T20:56:47.681Z,2.23
2023-08-30T20:59:15.839Z,2.10
2023-08-30T21:01:44.218Z,1.90
2023-08-30T21:04:12.338Z,2.10
2023-08-30T21:06:41.084Z,2.30
2023-08-30T21:09:09.260Z,2.10
2023-08-30T21:11:38.833Z,1.67
2023-08-30T21:14:07.108Z,1.87
2023-08-30T21:16:35.665Z,2.03
2023-08-30T21:19:04.861Z,2.47
2023-08-30T21:21:32.975Z,2.10
2023-08-30T21:24:02.228Z,2.17
2023-08-30T21:26:30.314Z,1.60
2023-08-30T21:28:59.742Z,1.90
2023-08-30T21:31:28.061Z,1.60
2023-08-30T21:33:56.244Z,2.43
2023-08-30T21:36:24.317Z,1.40
2023-08-30T21:38:52.622Z,1.50
2023-08-30T21:41:21.616Z,1.63
2023-08-30T21:43:49.727Z,1.13
2023-08-30T21:46:19.506Z,1.57
2023-08-30T21:48:48.114Z,1.30
2023-08-30T21:51:16.188Z,1.40
2023-08-30T21:53:44.285Z,1.43
2023-08-30T21:56:12.381Z,1.10
2023-08-30T21:58:40.450Z,1.20
2023-08-30T22:01:08.735Z,1.57
2023-08-30T22:03:38.190Z,1.40
2023-08-30T22:06:06.931Z,1.60
2023-08-30T22:08:35.674Z,1.40
2023-08-30T22:11:10.228Z,1.20
2023-08-30T22:13:38.499Z,1.50
2023-08-30T22:16:07.017Z,1.37
2023-08-30T22:18:35.432Z,1.47
2023-08-30T22:21:05.115Z,1.23
2023-08-30T22:23:33.221Z,1.20
2023-08-30T22:26:02.203Z,1.40
2023-08-30T22:28:30.550Z,1.27
2023-08-30T22:30:58.691Z,1.20
2023-08-30T22:33:27.014Z,1.10
2023-08-30T22:35:55.252Z,1.30
2023-08-30T22:38:24.695Z,1.20
2023-08-30T22:40:52.829Z,1.40
2023-08-30T22:43:21.671Z,1.17
2023-08-30T22:45:50.623Z,1.20
2023-08-30T22:48:18.725Z,1.40
2023-08-30T22:50:47.248Z,1.20
2023-08-30T22:53:15.351Z,1.40
2023-08-30T22:55:45.885Z,1.40
2023-08-30T22:58:14.069Z,1.30
2023-08-30T23:00:42.289Z,1.37
2023-08-30T23:03:11.075Z,1.13
2023-08-30T23:05:41.994Z,1.57
2023-08-30T23:08:10.081Z,1.30
2023-08-30T23:10:38.164Z,1.37
2023-08-30T23:13:07.778Z,1.50
2023-08-30T23:15:35.951Z,1.60
2023-08-30T23:18:04.470Z,1.60
2023-08-30T23:20:36.511Z,1.20
2023-08-30T23:23:04.995Z,1.63
2023-08-30T23:25:33.370Z,1.83
2023-08-30T23:28:02.276Z,1.80
2023-08-30T23:30:32.079Z,1.50
2023-08-30T23:33:02.339Z,1.53
2023-08-30T23:35:35.703Z,1.53
2023-08-30T23:38:04.080Z,1.30
2023-08-30T23:40:33.075Z,1.20
2023-08-30T23:43:02.404Z,1.20
2023-08-30T23:45:32.447Z,1.40
2023-08-30T23:48:00.689Z,1.43
2023-08-30T23:50:29.429Z,1.50
2023-08-30T23:52:57.652Z,1.27
2023-08-30T23:55:25.749Z,1.20
2023-08-30T23:57:53.863Z,1.30
